createdAt,value
2018-10-01T00:02:03.598Z,13.75
2018-10-01T00:04:31.773Z,15.78
2018-10-01T00:06:59.969Z,12.10
2018-10-01T00:09:28.305Z,13.08
2018-10-01T00:11:56.484Z,12.98
2018-10-01T00:14:24.655Z,14.95
2018-10-01T00:16:52.826Z,14.47
2018-10-01T00:19:26.511Z,16.17
2018-10-01T00:22:00.160Z,14.63
2018-10-01T00:24:28.400Z,12.35
2018-10-01T00:26:56.621Z,9.63
2018-10-01T00:29:24.811Z,11.53
2018-10-01T00:31:52.991Z,14.53
2018-10-01T00:34:21.285Z,9.50
2018-10-01T00:36:49.588Z,13.85
2018-10-01T00:39:17.746Z,10.30
2018-10-01T00:41:45.957Z,10.10
2018-10-01T00:44:14.120Z,11.55
2018-10-01T00:46:42.323Z,9.03
2018-10-01T00:49:10.533Z,10.10
2018-10-01T00:51:38.739Z,9.40
2018-10-01T00:54:07.130Z,12.10
2018-10-01T00:56:35.325Z,10.18
2018-10-01T00:59:03.528Z,10.25
2018-10-01T01:01:31.664Z,8.25
2018-10-01T01:03:59.823Z,10.45
2018-10-01T01:06:27.980Z,7.87
2018-10-01T01:08:56.167Z,7.60
2018-10-01T01:11:24.275Z,9.43
2018-10-01T01:13:52.470Z,9.38
2018-10-01T01:16:20.647Z,11.35
2018-10-01T01:18:48.971Z,11.70
2018-10-01T01:21:17.166Z,6.95
2018-10-01T01:23:45.332Z,8.23
2018-10-01T01:26:13.531Z,8.08
2018-10-01T01:28:41.924Z,10.20
2018-10-01T01:31:10.127Z,13.70
2018-10-01T01:33:38.318Z,14.13
2018-10-01T01:36:06.547Z,16.45
2018-10-01T01:38:34.784Z,13.72
2018-10-01T01:41:02.987Z,12.25
2018-10-01T01:43:31.197Z,13.85
2018-10-01T01:45:59.378Z,12.85
2018-10-01T01:48:27.659Z,13.35
2018-10-01T01:50:55.856Z,19.50
2018-10-01T01:53:24.056Z,16.17
2018-10-01T01:55:52.276Z,16.85
2018-10-01T01:58:20.412Z,14.45
2018-10-01T02:00:48.679Z,14.45
2018-10-01T02:03:16.864Z,14.15
2018-10-01T02:05:45.036Z,17.07
2018-10-01T02:08:13.193Z,17.62
2018-10-01T02:10:41.388Z,17.15
2018-10-01T02:13:09.724Z,18.92
2018-10-01T02:15:38.867Z,13.18
2018-10-01T02:18:07.050Z,14.98
2018-10-01T02:20:35.239Z,12.35
2018-10-01T02:23:03.448Z,14.73
2018-10-01T02:25:31.601Z,15.78
2018-10-01T02:27:59.795Z,14.55
2018-10-01T02:30:27.935Z,11.38
2018-10-01T02:32:56.157Z,13.20
2018-10-01T02:35:24.349Z,10.15
2018-10-01T02:37:52.524Z,9.85
2018-10-01T02:40:20.748Z,7.05
2018-10-01T02:42:48.947Z,8.43
2018-10-01T02:45:17.144Z,6.00
2018-10-01T02:47:45.363Z,6.85
2018-10-01T02:50:13.508Z,6.70
2018-10-01T02:52:47.311Z,7.25
2018-10-01T02:55:15.515Z,4.72
2018-10-01T02:57:43.636Z,10.38
2018-10-01T03:00:11.835Z,3.70
2018-10-01T03:02:40.410Z,7.28
2018-10-01T03:05:08.596Z,4.65
2018-10-01T03:07:37.036Z,8.05
2018-10-01T03:10:05.324Z,5.37
2018-10-01T03:12:33.529Z,6.20
2018-10-01T03:15:01.759Z,3.65
2018-10-01T03:17:29.959Z,3.72
2018-10-01T03:19:58.237Z,5.47
2018-10-01T03:22:26.549Z,5.17
2018-10-01T03:24:54.699Z,2.08
2018-10-01T03:27:22.898Z,5.35
2018-10-01T03:29:51.151Z,4.97
2018-10-01T03:32:19.374Z,3.25
2018-10-01T03:34:47.539Z,3.08
2018-10-01T03:37:15.726Z,5.08
2018-10-01T03:39:43.902Z,2.62
2018-10-01T03:42:12.039Z,3.87
2018-10-01T03:44:40.219Z,7.55
2018-10-01T03:47:08.419Z,5.58
2018-10-01T03:49:36.603Z,5.70
2018-10-01T03:52:04.829Z,3.72
2018-10-01T03:54:33.046Z,4.53
2018-10-01T03:57:01.267Z,3.33
2018-10-01T03:59:29.451Z,5.78
2018-10-01T04:01:57.635Z,3.02
2018-10-01T04:04:25.837Z,4.58
2018-10-01T04:06:54.066Z,4.95
2018-10-01T04:09:22.258Z,2.30
2018-10-01T04:11:50.489Z,3.90
2018-10-01T04:14:18.670Z,3.83
2018-10-01T04:16:46.844Z,4.30
2018-10-01T04:19:15.088Z,3.42
2018-10-01T04:21:43.279Z,2.98
2018-10-01T04:24:11.474Z,5.47
2018-10-01T04:26:39.643Z,4.50
2018-10-01T04:29:07.840Z,4.92
2018-10-01T04:31:36.043Z,5.05
2018-10-01T04:34:04.212Z,3.20
2018-10-01T04:36:32.427Z,6.10
2018-10-01T04:39:00.586Z,4.92
2018-10-01T04:41:28.809Z,8.13
2018-10-01T04:43:56.974Z,8.45
2018-10-01T04:46:25.187Z,9.18
2018-10-01T04:48:53.378Z,9.35
2018-10-01T04:51:21.551Z,12.07
2018-10-01T04:53:49.770Z,14.38
2018-10-01T04:56:17.981Z,10.75
2018-10-01T04:58:46.195Z,11.57
2018-10-01T05:01:14.502Z,10.90
2018-10-01T05:03:42.696Z,15.75
2018-10-01T05:06:11.000Z,15.58
2018-10-01T05:08:39.158Z,16.87
2018-10-01T05:11:07.329Z,21.40
2018-10-01T05:13:35.501Z,20.82
2018-10-01T05:16:03.692Z,19.95
2018-10-01T05:18:31.993Z,17.92
2018-10-01T05:21:00.238Z,17.67
2018-10-01T05:23:28.418Z,17.10
2018-10-01T05:25:56.681Z,15.75
2018-10-01T05:28:24.857Z,16.65
2018-10-01T05:30:53.038Z,15.25
2018-10-01T05:33:21.216Z,14.58
2018-10-01T05:35:49.443Z,16.05
2018-10-01T05:38:17.613Z,13.88
2018-10-01T05:40:45.855Z,12.40
2018-10-01T05:43:14.068Z,12.98
2018-10-01T05:45:42.243Z,11.85
2018-10-01T05:48:10.547Z,10.25
2018-10-01T05:50:38.721Z,12.58
2018-10-01T05:53:06.910Z,9.58
2018-10-01T05:55:35.110Z,11.78
2018-10-01T05:58:03.430Z,15.45
2018-10-01T06:00:31.720Z,10.85
2018-10-01T06:02:59.875Z,10.75
2018-10-01T06:05:28.085Z,11.18
2018-10-01T06:07:56.344Z,9.45
2018-10-01T06:10:24.725Z,6.45
2018-10-01T06:12:52.907Z,9.60
2018-10-01T06:15:21.055Z,7.53
2018-10-01T06:17:49.245Z,11.33
2018-10-01T06:20:17.486Z,10.38
2018-10-01T06:22:45.703Z,9.25
2018-10-01T06:25:14.049Z,7.53
2018-10-01T06:27:42.260Z,6.17
2018-10-01T06:30:10.440Z,7.95
2018-10-01T06:32:38.619Z,10.82
2018-10-01T06:35:06.820Z,9.08
2018-10-01T06:37:35.055Z,7.50
2018-10-01T06:40:03.231Z,8.03
2018-10-01T06:42:31.556Z,5.87
2018-10-01T06:44:59.767Z,5.87
2018-10-01T06:47:27.970Z,5.35
2018-10-01T06:49:56.263Z,7.15
2018-10-01T06:52:24.497Z,6.83
2018-10-01T06:54:52.812Z,8.28
2018-10-01T06:57:21.051Z,8.70
2018-10-01T06:59:49.223Z,7.85
2018-10-01T07:02:17.399Z,3.52
2018-10-01T07:04:45.597Z,6.45
2018-10-01T07:07:13.807Z,6.92
2018-10-01T07:09:42.026Z,4.20
2018-10-01T07:12:10.213Z,6.60
2018-10-01T07:14:38.414Z,9.18
2018-10-01T07:17:06.685Z,4.70
2018-10-01T07:19:35.432Z,5.83
2018-10-01T07:22:03.744Z,5.28
2018-10-01T07:24:32.971Z,6.47
2018-10-01T07:27:01.139Z,5.12
2018-10-01T07:29:29.298Z,7.30
2018-10-01T07:31:57.538Z,5.50
2018-10-01T07:34:26.048Z,6.40
2018-10-01T07:36:54.228Z,4.37
2018-10-01T07:39:22.371Z,7.40
2018-10-01T07:41:50.612Z,6.00
2018-10-01T07:44:18.845Z,6.22
2018-10-01T07:46:47.023Z,5.12
2018-10-01T07:49:15.199Z,7.33
2018-10-01T07:51:43.360Z,6.90
2018-10-01T07:54:11.577Z,6.25
2018-10-01T07:56:39.928Z,4.25
2018-10-01T07:59:08.131Z,4.17
2018-10-01T08:01:36.298Z,4.20
2018-10-01T08:04:04.471Z,3.72
2018-10-01T08:06:32.717Z,4.80
2018-10-01T08:09:00.921Z,3.50
2018-10-01T08:11:29.140Z,4.08
2018-10-01T08:13:57.347Z,5.20
2018-10-01T08:16:25.582Z,5.83
2018-10-01T08:18:53.840Z,1.92
2018-10-01T08:21:22.013Z,2.27
2018-10-01T08:23:50.269Z,2.60
2018-10-01T08:26:18.542Z,1.10
2018-10-01T08:28:46.602Z,3.42
2018-10-01T08:31:14.739Z,3.35
2018-10-01T08:33:42.982Z,3.55
2018-10-01T08:36:11.122Z,4.45
2018-10-01T08:38:39.352Z,6.33
2018-10-01T08:41:07.502Z,3.37
2018-10-01T08:43:35.642Z,3.35
2018-10-01T08:46:03.954Z,2.98
2018-10-01T08:48:34.127Z,6.75
2018-10-01T08:51:08.962Z,7.00
2018-10-01T08:53:40.415Z,2.10
2018-10-01T08:56:08.626Z,4.50
2018-10-01T08:58:36.744Z,6.67
2018-10-01T09:01:04.983Z,5.17
2018-10-01T09:03:33.142Z,6.17
2018-10-01T09:06:01.283Z,8.20
2018-10-01T09:08:29.440Z,4.15
2018-10-01T09:10:57.721Z,6.25
2018-10-01T09:13:25.879Z,2.77
2018-10-01T09:15:54.003Z,5.40
2018-10-01T09:18:22.178Z,5.03
2018-10-01T09:20:50.392Z,5.42
2018-10-01T09:23:18.642Z,5.20
2018-10-01T09:25:47.020Z,4.55
2018-10-01T09:28:15.175Z,3.85
2018-10-01T09:30:43.360Z,4.35
2018-10-01T09:33:11.532Z,5.47
2018-10-01T09:35:39.778Z,4.33
2018-10-01T09:38:07.884Z,5.83
2018-10-01T09:40:36.128Z,5.85
2018-10-01T09:43:04.240Z,4.35
2018-10-01T09:45:32.421Z,3.60
2018-10-01T09:48:00.623Z,3.72
2018-10-01T09:50:28.761Z,7.00
2018-10-01T09:52:56.935Z,5.55
2018-10-01T09:55:25.108Z,4.60
2018-10-01T09:57:53.277Z,4.47
2018-10-01T10:00:26.840Z,9.78
2018-10-01T10:02:54.990Z,5.28
2018-10-01T10:05:23.159Z,4.80
2018-10-01T10:07:51.475Z,5.03
2018-10-01T10:10:19.705Z,6.50
2018-10-01T10:12:47.859Z,6.35
2018-10-01T10:15:16.016Z,8.23
2018-10-01T10:17:44.187Z,4.78
2018-10-01T10:20:12.425Z,4.22
2018-10-01T10:22:40.850Z,11.85
2018-10-01T10:25:09.030Z,5.03
2018-10-01T10:27:37.238Z,6.85
2018-10-01T10:30:06.160Z,6.08
2018-10-01T10:32:34.421Z,6.75
2018-10-01T10:35:02.532Z,8.35
2018-10-01T10:37:30.680Z,5.15
2018-10-01T10:39:58.812Z,5.00
2018-10-01T10:42:26.980Z,5.55
2018-10-01T10:44:55.159Z,5.30
2018-10-01T10:47:23.430Z,3.90
2018-10-01T10:49:51.627Z,4.58
2018-10-01T10:52:19.863Z,2.65
2018-10-01T10:54:47.997Z,5.20
2018-10-01T10:57:16.170Z,8.08
2018-10-01T10:59:44.332Z,3.27
2018-10-01T11:02:12.553Z,3.30
2018-10-01T11:04:40.675Z,6.80
2018-10-01T11:07:08.806Z,3.90
2018-10-01T11:09:36.982Z,9.68
2018-10-01T11:12:05.103Z,4.53
2018-10-01T11:14:33.436Z,6.37
2018-10-01T11:17:01.507Z,2.35
2018-10-01T11:19:29.694Z,3.60
2018-10-01T11:21:57.955Z,5.15
2018-10-01T11:24:26.083Z,2.47
2018-10-01T11:26:54.244Z,2.55
2018-10-01T11:29:22.377Z,2.20
2018-10-01T11:31:50.562Z,1.70
2018-10-01T11:34:19.566Z,2.40
2018-10-01T11:36:47.772Z,4.00
2018-10-01T11:39:16.058Z,2.42
2018-10-01T11:41:44.158Z,3.22
2018-10-01T11:44:12.295Z,3.55
2018-10-01T11:46:40.429Z,1.22
2018-10-01T11:49:08.703Z,2.33
2018-10-01T11:51:36.984Z,2.87
2018-10-01T11:54:05.098Z,2.95
2018-10-01T11:56:33.222Z,0.82
2018-10-01T11:59:01.358Z,5.97
2018-10-01T12:01:29.464Z,4.05
2018-10-01T12:03:57.776Z,2.77
2018-10-01T12:06:26.044Z,3.75
2018-10-01T12:08:54.234Z,3.42
2018-10-01T12:11:22.384Z,2.83
2018-10-01T12:13:50.560Z,4.40
2018-10-01T12:16:18.775Z,2.62
2018-10-01T12:18:46.911Z,4.35
2018-10-01T12:21:15.186Z,3.12
2018-10-01T12:23:43.309Z,2.60
2018-10-01T12:26:11.499Z,3.25
2018-10-01T12:28:39.690Z,3.02
2018-10-01T12:31:07.926Z,3.12
2018-10-01T12:33:36.238Z,3.12
2018-10-01T12:36:04.361Z,3.45
2018-10-01T12:38:32.525Z,3.22
2018-10-01T12:41:00.663Z,3.50
2018-10-01T12:43:28.907Z,3.33
2018-10-01T12:45:57.082Z,3.22
2018-10-01T12:48:25.343Z,4.85
2018-10-01T12:50:53.940Z,5.97
2018-10-01T12:53:22.088Z,5.45
2018-10-01T12:55:50.268Z,5.28
2018-10-01T12:58:18.425Z,3.27
2018-10-01T13:00:46.557Z,5.25
2018-10-01T13:03:14.748Z,5.20
2018-10-01T13:05:42.870Z,5.20
2018-10-01T13:08:10.994Z,3.55
2018-10-01T13:10:39.139Z,3.98
2018-10-01T13:13:08.366Z,4.30
2018-10-01T13:15:37.124Z,4.72
2018-10-01T13:18:05.345Z,5.80
2018-10-01T13:20:33.483Z,5.22
2018-10-01T13:23:01.687Z,6.12
2018-10-01T13:25:30.427Z,5.53
2018-10-01T13:27:58.598Z,4.70
2018-10-01T13:30:26.743Z,10.82
2018-10-01T13:32:54.910Z,5.65
2018-10-01T13:37:57.775Z,6.87
2018-10-01T13:40:25.967Z,5.70
2018-10-01T13:42:54.132Z,6.05
2018-10-01T13:45:22.361Z,6.10
2018-10-01T13:47:50.527Z,4.35
2018-10-01T13:50:18.824Z,5.42
2018-10-01T13:52:47.002Z,7.62
2018-10-01T13:55:15.793Z,2.92
2018-10-01T13:57:43.965Z,4.92
2018-10-01T14:00:13.151Z,4.47
2018-10-01T14:02:41.348Z,6.65
2018-10-01T14:05:09.559Z,8.60
2018-10-01T14:07:37.775Z,7.83
2018-10-01T14:10:05.954Z,5.92
2018-10-01T14:12:34.153Z,5.92
2018-10-01T14:15:02.471Z,5.20
2018-10-01T14:17:30.639Z,7.87
2018-10-01T14:19:59.187Z,5.92
2018-10-01T14:22:27.095Z,5.65
2018-10-01T14:24:55.324Z,7.83
2018-10-01T14:27:23.537Z,6.65
2018-10-01T14:29:51.759Z,6.03
2018-10-01T14:32:20.011Z,5.40
2018-10-01T14:34:48.187Z,5.60
2018-10-01T14:37:16.379Z,6.87
2018-10-01T14:39:45.431Z,9.03
2018-10-01T14:42:13.678Z,4.70
2018-10-01T14:44:42.437Z,4.17
2018-10-01T14:47:10.912Z,3.35
2018-10-01T14:49:39.071Z,6.97
2018-10-01T14:52:07.265Z,6.33
2018-10-01T14:54:35.569Z,6.03
2018-10-01T14:57:03.731Z,3.67
2018-10-01T14:59:31.866Z,8.40
2018-10-01T15:02:00.428Z,9.88
2018-10-01T15:04:28.707Z,4.80
2018-10-01T15:06:56.987Z,6.33
2018-10-01T15:09:25.251Z,5.58
2018-10-01T15:11:53.423Z,7.70
2018-10-01T15:14:21.578Z,7.20
2018-10-01T15:16:49.879Z,4.53
2018-10-01T15:19:18.055Z,9.43
2018-10-01T15:21:46.263Z,6.80
2018-10-01T15:24:14.553Z,6.53
2018-10-01T15:26:42.658Z,4.72
2018-10-01T15:29:10.829Z,4.20
2018-10-01T15:31:38.994Z,7.90
2018-10-01T15:34:07.170Z,6.03
2018-10-01T15:36:35.988Z,6.62
2018-10-01T15:39:05.871Z,8.73
2018-10-01T15:41:34.009Z,4.92
2018-10-01T15:44:02.222Z,4.12
2018-10-01T15:46:30.426Z,4.28
2018-10-01T15:48:58.629Z,7.00
2018-10-01T15:51:26.867Z,9.38
2018-10-01T15:53:55.029Z,6.72
2018-10-01T15:56:23.205Z,4.83
2018-10-01T15:58:51.433Z,7.30
2018-10-01T16:01:19.613Z,6.97
2018-10-01T16:03:47.776Z,4.33
2018-10-01T16:06:16.036Z,6.35
2018-10-01T16:08:44.228Z,8.38
2018-10-01T16:11:12.446Z,11.18
2018-10-01T16:13:40.629Z,4.20
2018-10-01T16:16:09.293Z,6.60
2018-10-01T16:18:37.537Z,6.62
2018-10-01T16:21:07.309Z,3.45
2018-10-01T16:23:36.132Z,4.83
2018-10-01T16:26:04.422Z,3.77
2018-10-01T16:28:32.612Z,5.37
2018-10-01T16:31:00.788Z,3.62
2018-10-01T16:33:29.340Z,3.12
2018-10-01T16:35:57.549Z,3.30
2018-10-01T16:38:25.727Z,4.25
2018-10-01T16:40:53.894Z,2.42
2018-10-01T16:43:22.137Z,3.17
2018-10-01T16:45:50.331Z,3.58
2018-10-01T16:48:18.603Z,2.52
2018-10-01T16:50:46.848Z,5.97
2018-10-01T16:53:14.980Z,3.60
2018-10-01T16:55:43.188Z,2.17
2018-10-01T16:58:11.395Z,2.77
2018-10-01T17:00:39.638Z,1.47
2018-10-01T17:03:07.809Z,2.65
2018-10-01T17:05:35.980Z,3.02
2018-10-01T17:08:04.124Z,3.40
2018-10-01T17:10:32.268Z,1.52
2018-10-01T17:19:07.362Z,1.72
2018-10-01T17:21:35.533Z,2.50
2018-10-01T17:24:03.766Z,4.70
2018-10-01T17:26:31.984Z,3.30
2018-10-01T17:29:00.150Z,3.00
2018-10-01T17:31:28.367Z,1.82
2018-10-01T17:33:56.616Z,5.47
2018-10-01T17:36:24.829Z,4.65
2018-10-01T17:38:53.001Z,3.90
2018-10-01T17:41:21.266Z,3.17
2018-10-01T17:43:49.443Z,4.05
2018-10-01T17:46:17.656Z,2.00
2018-10-01T17:48:45.860Z,4.12
2018-10-01T17:56:09.452Z,3.95
2018-10-01T17:58:37.764Z,3.85
2018-10-01T18:01:05.959Z,7.58
2018-10-01T18:03:34.234Z,7.50
2018-10-01T18:06:02.530Z,4.65
2018-10-01T18:08:31.504Z,4.78
2018-10-01T18:11:00.290Z,5.25
2018-10-01T18:13:28.532Z,4.30
2018-10-01T18:15:56.698Z,7.87
2018-10-01T18:18:24.949Z,6.50
2018-10-01T18:23:27.755Z,5.53
2018-10-01T18:25:56.013Z,4.60
2018-10-01T18:28:24.190Z,5.25
2018-10-01T18:30:52.407Z,6.70
2018-10-01T18:33:20.614Z,6.00
2018-10-01T18:35:48.895Z,6.55
2018-10-01T18:38:17.182Z,6.35
2018-10-01T18:40:45.408Z,7.60
2018-10-01T18:43:13.633Z,6.50
2018-10-01T18:45:41.944Z,6.10
2018-10-01T18:48:10.286Z,9.45
2018-10-01T18:50:38.683Z,8.08
2018-10-01T18:53:06.963Z,9.83
2018-10-01T18:55:35.168Z,4.45
2018-10-01T18:58:03.400Z,4.08
2018-10-01T19:00:31.665Z,6.70
2018-10-01T19:02:59.870Z,8.45
2018-10-01T19:05:28.140Z,10.88
2018-10-01T19:07:57.003Z,11.88
2018-10-01T19:10:25.514Z,9.05
2018-10-01T19:12:54.863Z,7.85
2018-10-01T19:15:23.152Z,3.62
2018-10-01T19:17:51.356Z,6.08
2018-10-01T19:20:19.651Z,5.78
2018-10-01T19:22:47.822Z,6.80
2018-10-01T19:25:15.999Z,8.40
2018-10-01T19:27:44.167Z,6.85
2018-10-01T19:30:12.478Z,7.45
2018-10-01T19:32:40.714Z,4.47
2018-10-01T19:35:08.863Z,9.95
2018-10-01T19:37:37.004Z,5.95
2018-10-01T19:40:05.277Z,7.67
2018-10-01T19:42:33.467Z,8.03
2018-10-01T19:45:01.739Z,7.08
2018-10-01T19:47:29.955Z,5.75
2018-10-01T19:49:58.310Z,5.83
2018-10-01T19:52:26.607Z,6.78
2018-10-01T19:54:54.816Z,6.75
2018-10-01T19:57:23.041Z,7.80
2018-10-01T19:59:51.454Z,8.45
2018-10-01T20:02:19.644Z,6.70
2018-10-01T20:04:47.969Z,7.58
2018-10-01T20:07:16.139Z,9.80
2018-10-01T20:09:45.081Z,5.78
2018-10-01T20:12:14.396Z,7.05
2018-10-01T20:14:43.309Z,6.53
2018-10-01T20:17:11.677Z,6.17
2018-10-01T20:19:39.935Z,10.13
2018-10-01T20:22:09.793Z,7.65
2018-10-01T20:24:38.064Z,7.15
2018-10-01T20:27:06.336Z,7.25
2018-10-01T20:29:34.669Z,5.92
2018-10-01T20:32:03.003Z,5.72
2018-10-01T20:34:31.520Z,2.95
2018-10-01T20:36:59.841Z,4.97
2018-10-01T20:39:28.011Z,6.75
2018-10-01T20:41:56.581Z,10.58
2018-10-01T20:44:25.541Z,9.48
2018-10-01T20:46:53.688Z,5.72
2018-10-01T20:49:21.876Z,5.47
2018-10-01T20:51:50.070Z,8.75
2018-10-01T20:54:18.273Z,6.75
2018-10-01T20:56:46.506Z,2.67
2018-10-01T20:59:16.434Z,4.90
2018-10-01T21:01:44.592Z,8.28
2018-10-01T21:04:12.819Z,6.78
2018-10-01T21:06:41.012Z,5.37
2018-10-01T21:09:10.591Z,12.98
2018-10-01T21:11:38.819Z,5.47
2018-10-01T21:14:07.056Z,6.60
2018-10-01T21:16:35.475Z,4.00
2018-10-01T21:19:03.824Z,7.55
2018-10-01T21:21:32.040Z,9.18
2018-10-01T21:24:02.025Z,6.08
2018-10-01T21:26:30.308Z,7.87
2018-10-01T21:28:58.622Z,10.13
2018-10-01T21:31:26.869Z,6.72
2018-10-01T21:33:55.077Z,5.20
2018-10-01T21:36:23.318Z,6.95
2018-10-01T21:38:51.549Z,5.80
2018-10-01T21:41:19.741Z,6.92
2018-10-01T21:43:47.947Z,9.30
2018-10-01T21:46:16.138Z,3.98
2018-10-01T21:48:44.340Z,4.03
2018-10-01T21:51:12.533Z,8.50
2018-10-01T21:53:40.746Z,3.98
2018-10-01T21:56:08.911Z,6.97
2018-10-01T21:58:37.247Z,5.22
2018-10-01T22:01:10.918Z,5.92
2018-10-01T22:03:39.185Z,8.30
2018-10-01T22:06:07.404Z,7.97
2018-10-01T22:08:35.576Z,14.80
2018-10-01T22:11:03.770Z,10.85
2018-10-01T22:13:31.953Z,8.93
2018-10-01T22:16:00.219Z,6.85
2018-10-01T22:18:28.483Z,6.30
2018-10-01T22:23:31.303Z,8.35
2018-10-01T22:26:00.256Z,7.17
2018-10-01T22:28:29.427Z,8.63
2018-10-01T22:30:57.604Z,7.75
2018-10-01T22:33:25.774Z,10.32
2018-10-01T22:35:53.949Z,4.97
2018-10-01T22:38:22.253Z,4.53
2018-10-01T22:40:50.415Z,10.80
2018-10-01T22:43:19.094Z,8.50
2018-10-01T22:45:47.292Z,7.15
2018-10-01T22:48:15.482Z,6.55
2018-10-01T22:50:43.652Z,6.83
2018-10-01T22:53:11.880Z,4.35
2018-10-01T22:55:40.037Z,8.48
2018-10-01T22:58:08.180Z,9.03
2018-10-01T23:00:36.392Z,6.12
2018-10-01T23:03:04.631Z,13.55
2018-10-01T23:05:32.815Z,8.43
2018-10-01T23:08:00.947Z,9.18
2018-10-01T23:10:29.115Z,10.98
2018-10-01T23:12:57.410Z,7.12
2018-10-01T23:15:25.621Z,7.30
2018-10-01T23:17:53.775Z,8.43
2018-10-01T23:20:21.929Z,4.78
2018-10-01T23:22:50.110Z,6.60
2018-10-01T23:25:18.286Z,5.50
2018-10-01T23:27:46.538Z,7.87
2018-10-01T23:30:14.723Z,8.68
2018-10-01T23:32:42.944Z,6.95
2018-10-01T23:35:11.107Z,6.67
2018-10-01T23:37:39.359Z,7.37
2018-10-01T23:40:07.594Z,9.83
2018-10-01T23:42:35.828Z,6.17
2018-10-01T23:45:03.996Z,7.55
2018-10-01T23:47:32.172Z,7.35
2018-10-01T23:50:00.354Z,8.03
2018-10-01T23:52:28.558Z,6.72
2018-10-01T23:54:56.837Z,5.08
2018-10-01T23:57:24.983Z,6.15
2018-10-01T23:59:53.258Z,5.00
